sensor_id;sensor_type;location;lat;lon;timestamp;pressure;altitude;pressure_sealevel;temperature
62930;BMP280;49036;42.782;23.108;2023-02-28T00:01:14;94375.63;;;2.99
62930;BMP280;49036;42.782;23.108;2023-02-28T00:03:41;94389.88;;;2.97
62930;BMP280;49036;42.782;23.108;2023-02-28T00:06:07;94393.97;;;2.90
62930;BMP280;49036;42.782;23.108;2023-02-28T00:08:35;94388.78;;;2.74
62930;BMP280;49036;42.782;23.108;2023-02-28T00:11:06;94387.16;;;2.65
62930;BMP280;49036;42.782;23.108;2023-02-28T00:13:33;94399.63;;;2.47
62930;BMP280;49036;42.782;23.108;2023-02-28T00:16:01;94394.91;;;2.29
62930;BMP280;49036;42.782;23.108;2023-02-28T00:18:27;94396.41;;;2.11
62930;BMP280;49036;42.782;23.108;2023-02-28T00:20:53;94402.00;;;2.00
62930;BMP280;49036;42.782;23.108;2023-02-28T00:23:18;94409.13;;;2.09
62930;BMP280;49036;42.782;23.108;2023-02-28T00:25:44;94416.44;;;2.00
62930;BMP280;49036;42.782;23.108;2023-02-28T00:28:10;94422.56;;;1.88
62930;BMP280;49036;42.782;23.108;2023-02-28T00:30:35;94423.16;;;1.81
62930;BMP280;49036;42.782;23.108;2023-02-28T00:33:01;94416.72;;;1.78
62930;BMP280;49036;42.782;23.108;2023-02-28T00:35:26;94418.94;;;1.80
62930;BMP280;49036;42.782;23.108;2023-02-28T00:37:52;94414.03;;;1.72
62930;BMP280;49036;42.782;23.108;2023-02-28T00:40:17;94410.72;;;1.80
62930;BMP280;49036;42.782;23.108;2023-02-28T00:42:43;94410.06;;;1.73
62930;BMP280;49036;42.782;23.108;2023-02-28T00:45:09;94407.03;;;1.77
62930;BMP280;49036;42.782;23.108;2023-02-28T00:47:34;94408.84;;;1.93
62930;BMP280;49036;42.782;23.108;2023-02-28T00:50:00;94408.75;;;1.99
62930;BMP280;49036;42.782;23.108;2023-02-28T00:52:26;94406.84;;;2.13
62930;BMP280;49036;42.782;23.108;2023-02-28T00:54:51;94413.03;;;2.32
62930;BMP280;49036;42.782;23.108;2023-02-28T00:57:17;94414.44;;;2.39
62930;BMP280;49036;42.782;23.108;2023-02-28T00:59:43;94420.13;;;2.41
62930;BMP280;49036;42.782;23.108;2023-02-28T01:02:08;94416.94;;;2.55
62930;BMP280;49036;42.782;23.108;2023-02-28T01:04:34;94401.66;;;2.60
62930;BMP280;49036;42.782;23.108;2023-02-28T01:06:59;94393.41;;;2.79
62930;BMP280;49036;42.782;23.108;2023-02-28T01:09:25;94399.91;;;2.95
62930;BMP280;49036;42.782;23.108;2023-02-28T01:11:50;94405.41;;;2.95
62930;BMP280;49036;42.782;23.108;2023-02-28T01:14:17;94406.06;;;3.14
62930;BMP280;49036;42.782;23.108;2023-02-28T01:16:43;94395.47;;;3.18
62930;BMP280;49036;42.782;23.108;2023-02-28T01:19:09;94395.81;;;3.28
62930;BMP280;49036;42.782;23.108;2023-02-28T01:21:34;94395.38;;;3.24
62930;BMP280;49036;42.782;23.108;2023-02-28T01:24:01;94394.47;;;3.34
62930;BMP280;49036;42.782;23.108;2023-02-28T01:26:27;94404.69;;;3.34
62930;BMP280;49036;42.782;23.108;2023-02-28T01:28:52;94393.81;;;3.41
62930;BMP280;49036;42.782;23.108;2023-02-28T01:31:19;94393.94;;;3.49
62930;BMP280;49036;42.782;23.108;2023-02-28T01:33:45;94391.91;;;3.50
62930;BMP280;49036;42.782;23.108;2023-02-28T01:36:13;94382.63;;;3.66
62930;BMP280;49036;42.782;23.108;2023-02-28T01:38:39;94378.81;;;3.69
62930;BMP280;49036;42.782;23.108;2023-02-28T01:41:05;94378.63;;;3.67
62930;BMP280;49036;42.782;23.108;2023-02-28T01:43:32;94384.66;;;3.65
62930;BMP280;49036;42.782;23.108;2023-02-28T01:45:58;94381.78;;;3.58
62930;BMP280;49036;42.782;23.108;2023-02-28T01:48:36;94386.84;;;3.67
62930;BMP280;49036;42.782;23.108;2023-02-28T01:51:11;94386.84;;;3.80
62930;BMP280;49036;42.782;23.108;2023-02-28T01:53:45;94388.31;;;3.81
62930;BMP280;49036;42.782;23.108;2023-02-28T01:56:14;94391.16;;;3.89
62930;BMP280;49036;42.782;23.108;2023-02-28T01:58:48;94397.06;;;3.93
62930;BMP280;49036;42.782;23.108;2023-02-28T02:01:15;94387.91;;;3.90
62930;BMP280;49036;42.782;23.108;2023-02-28T02:03:58;94387.31;;;4.05
62930;BMP280;49036;42.782;23.108;2023-02-28T02:06:35;94397.88;;;4.01
62930;BMP280;49036;42.782;23.108;2023-02-28T02:09:02;94390.38;;;4.01
62930;BMP280;49036;42.782;23.108;2023-02-28T02:11:28;94388.38;;;4.02
62930;BMP280;49036;42.782;23.108;2023-02-28T02:21:59;94389.00;;;4.08
62930;BMP280;49036;42.782;23.108;2023-02-28T02:30:12;94388.38;;;4.02
62930;BMP280;49036;42.782;23.108;2023-02-28T02:35:52;94393.50;;;3.85
62930;BMP280;49036;42.782;23.108;2023-02-28T02:43:29;94385.34;;;3.92
62930;BMP280;49036;42.782;23.108;2023-02-28T02:46:01;94386.16;;;4.00
62930;BMP280;49036;42.782;23.108;2023-02-28T02:48:30;94399.69;;;3.98
62930;BMP280;49036;42.782;23.108;2023-02-28T02:50:59;94385.22;;;3.98
62930;BMP280;49036;42.782;23.108;2023-02-28T02:53:30;94396.75;;;3.96
62930;BMP280;49036;42.782;23.108;2023-02-28T02:55:58;94393.56;;;4.05
62930;BMP280;49036;42.782;23.108;2023-02-28T02:58:31;94400.75;;;4.09
62930;BMP280;49036;42.782;23.108;2023-02-28T03:01:00;94406.44;;;3.97
62930;BMP280;49036;42.782;23.108;2023-02-28T03:03:27;94401.16;;;3.99
62930;BMP280;49036;42.782;23.108;2023-02-28T03:05:58;94400.53;;;4.07
62930;BMP280;49036;42.782;23.108;2023-02-28T03:08:24;94394.25;;;4.19
62930;BMP280;49036;42.782;23.108;2023-02-28T03:10:54;94404.50;;;4.19
62930;BMP280;49036;42.782;23.108;2023-02-28T03:13:39;94406.44;;;4.11
62930;BMP280;49036;42.782;23.108;2023-02-28T03:16:29;94412.72;;;4.19
62930;BMP280;49036;42.782;23.108;2023-02-28T03:19:29;94397.25;;;4.08
62930;BMP280;49036;42.782;23.108;2023-02-28T03:27:45;94425.66;;;4.11
62930;BMP280;49036;42.782;23.108;2023-02-28T03:33:10;94426.09;;;3.88
62930;BMP280;49036;42.782;23.108;2023-02-28T03:35:41;94434.63;;;3.98
62930;BMP280;49036;42.782;23.108;2023-02-28T03:38:35;94434.94;;;4.08
62930;BMP280;49036;42.782;23.108;2023-02-28T03:41:36;94427.56;;;4.02
62930;BMP280;49036;42.782;23.108;2023-02-28T03:44:12;94432.44;;;4.10
62930;BMP280;49036;42.782;23.108;2023-02-28T03:46:49;94430.06;;;4.14
62930;BMP280;49036;42.782;23.108;2023-02-28T03:49:24;94442.53;;;4.15
62930;BMP280;49036;42.782;23.108;2023-02-28T03:51:54;94445.91;;;4.21
62930;BMP280;49036;42.782;23.108;2023-02-28T03:54:41;94442.31;;;4.26
62930;BMP280;49036;42.782;23.108;2023-02-28T03:57:18;94446.72;;;4.29
62930;BMP280;49036;42.782;23.108;2023-02-28T03:59:54;94449.69;;;4.31
62930;BMP280;49036;42.782;23.108;2023-02-28T04:02:21;94444.53;;;4.27
62930;BMP280;49036;42.782;23.108;2023-02-28T04:04:47;94445.47;;;4.30
62930;BMP280;49036;42.782;23.108;2023-02-28T04:07:14;94449.59;;;4.23
62930;BMP280;49036;42.782;23.108;2023-02-28T04:09:41;94442.75;;;4.17
62930;BMP280;49036;42.782;23.108;2023-02-28T04:12:06;94450.75;;;4.15
62930;BMP280;49036;42.782;23.108;2023-02-28T04:14:32;94454.28;;;4.15
62930;BMP280;49036;42.782;23.108;2023-02-28T04:16:58;94456.16;;;4.20
62930;BMP280;49036;42.782;23.108;2023-02-28T04:19:23;94460.94;;;4.07
62930;BMP280;49036;42.782;23.108;2023-02-28T04:21:51;94457.41;;;4.19
62930;BMP280;49036;42.782;23.108;2023-02-28T04:24:18;94465.97;;;4.29
62930;BMP280;49036;42.782;23.108;2023-02-28T04:26:51;94463.22;;;4.29
62930;BMP280;49036;42.782;23.108;2023-02-28T04:29:23;94460.47;;;4.29
62930;BMP280;49036;42.782;23.108;2023-02-28T04:31:48;94459.91;;;4.10
62930;BMP280;49036;42.782;23.108;2023-02-28T04:34:14;94452.94;;;4.09
62930;BMP280;49036;42.782;23.108;2023-02-28T04:36:40;94462.81;;;4.12
62930;BMP280;49036;42.782;23.108;2023-02-28T04:39:05;94470.22;;;4.17
62930;BMP280;49036;42.782;23.108;2023-02-28T04:41:31;94463.25;;;4.16
62930;BMP280;49036;42.782;23.108;2023-02-28T04:43:56;94463.28;;;4.02
62930;BMP280;49036;42.782;23.108;2023-02-28T04:46:23;94476.03;;;4.00
62930;BMP280;49036;42.782;23.108;2023-02-28T04:48:48;94474.66;;;4.07
62930;BMP280;49036;42.782;23.108;2023-02-28T04:51:16;94482.16;;;4.06
62930;BMP280;49036;42.782;23.108;2023-02-28T04:53:42;94467.03;;;4.13
62930;BMP280;49036;42.782;23.108;2023-02-28T04:56:11;94464.13;;;4.11
62930;BMP280;49036;42.782;23.108;2023-02-28T04:58:37;94464.50;;;4.15
62930;BMP280;49036;42.782;23.108;2023-02-28T05:03:44;94479.94;;;4.04
62930;BMP280;49036;42.782;23.108;2023-02-28T05:06:10;94472.44;;;4.05
62930;BMP280;49036;42.782;23.108;2023-02-28T05:08:36;94471.63;;;4.10
62930;BMP280;49036;42.782;23.108;2023-02-28T05:11:02;94480.22;;;4.14
62930;BMP280;49036;42.782;23.108;2023-02-28T05:13:28;94485.41;;;4.18
62930;BMP280;49036;42.782;23.108;2023-02-28T05:15:54;94481.84;;;4.23
62930;BMP280;49036;42.782;23.108;2023-02-28T05:18:20;94486.06;;;4.24
62930;BMP280;49036;42.782;23.108;2023-02-28T05:20:46;94485.72;;;4.27
62930;BMP280;49036;42.782;23.108;2023-02-28T05:23:13;94489.22;;;4.41
62930;BMP280;49036;42.782;23.108;2023-02-28T05:25:39;94495.94;;;4.40
62930;BMP280;49036;42.782;23.108;2023-02-28T05:28:05;94493.63;;;4.44
62930;BMP280;49036;42.782;23.108;2023-02-28T05:30:31;94499.53;;;4.48
62930;BMP280;49036;42.782;23.108;2023-02-28T05:33:00;94494.91;;;4.43
62930;BMP280;49036;42.782;23.108;2023-02-28T05:35:26;94500.28;;;4.49
62930;BMP280;49036;42.782;23.108;2023-02-28T05:37:52;94501.53;;;4.48
62930;BMP280;49036;42.782;23.108;2023-02-28T05:40:17;94501.94;;;4.52
62930;BMP280;49036;42.782;23.108;2023-02-28T05:42:45;94497.81;;;4.58
62930;BMP280;49036;42.782;23.108;2023-02-28T05:45:11;94498.75;;;4.61
62930;BMP280;49036;42.782;23.108;2023-02-28T05:47:37;94506.06;;;4.58
62930;BMP280;49036;42.782;23.108;2023-02-28T05:50:03;94502.97;;;4.62
62930;BMP280;49036;42.782;23.108;2023-02-28T05:52:29;94504.13;;;4.67
62930;BMP280;49036;42.782;23.108;2023-02-28T05:54:55;94513.94;;;4.75
62930;BMP280;49036;42.782;23.108;2023-02-28T05:57:21;94516.13;;;4.77
62930;BMP280;49036;42.782;23.108;2023-02-28T05:59:47;94507.47;;;4.86
62930;BMP280;49036;42.782;23.108;2023-02-28T06:02:14;94515.38;;;4.89
62930;BMP280;49036;42.782;23.108;2023-02-28T06:04:40;94514.81;;;4.91
62930;BMP280;49036;42.782;23.108;2023-02-28T06:07:06;94513.97;;;4.96
62930;BMP280;49036;42.782;23.108;2023-02-28T06:09:32;94502.03;;;4.93
62930;BMP280;49036;42.782;23.108;2023-02-28T06:12:02;94509.94;;;4.97
62930;BMP280;49036;42.782;23.108;2023-02-28T06:14:31;94511.56;;;5.13
62930;BMP280;49036;42.782;23.108;2023-02-28T06:16:57;94516.78;;;5.25
62930;BMP280;49036;42.782;23.108;2023-02-28T06:19:23;94515.72;;;5.28
62930;BMP280;49036;42.782;23.108;2023-02-28T06:21:52;94519.81;;;5.13
62930;BMP280;49036;42.782;23.108;2023-02-28T06:24:22;94524.25;;;5.16
62930;BMP280;49036;42.782;23.108;2023-02-28T06:26:48;94522.31;;;5.25
62930;BMP280;49036;42.782;23.108;2023-02-28T06:29:14;94529.41;;;5.41
62930;BMP280;49036;42.782;23.108;2023-02-28T06:31:47;94531.97;;;5.39
62930;BMP280;49036;42.782;23.108;2023-02-28T06:34:13;94534.72;;;5.39
62930;BMP280;49036;42.782;23.108;2023-02-28T06:36:40;94537.19;;;5.50
62930;BMP280;49036;42.782;23.108;2023-02-28T06:39:06;94533.84;;;5.44
62930;BMP280;49036;42.782;23.108;2023-02-28T06:41:32;94538.13;;;5.53
62930;BMP280;49036;42.782;23.108;2023-02-28T06:44:03;94544.78;;;5.57
62930;BMP280;49036;42.782;23.108;2023-02-28T06:46:29;94544.88;;;5.44
62930;BMP280;49036;42.782;23.108;2023-02-28T06:48:55;94545.84;;;5.54
62930;BMP280;49036;42.782;23.108;2023-02-28T06:51:21;94545.22;;;5.48
62930;BMP280;49036;42.782;23.108;2023-02-28T06:53:47;94549.09;;;5.45
62930;BMP280;49036;42.782;23.108;2023-02-28T06:56:14;94545.50;;;5.37
62930;BMP280;49036;42.782;23.108;2023-02-28T06:58:41;94553.63;;;5.21
62930;BMP280;49036;42.782;23.108;2023-02-28T07:01:07;94544.31;;;5.25
62930;BMP280;49036;42.782;23.108;2023-02-28T07:03:35;94559.78;;;5.35
62930;BMP280;49036;42.782;23.108;2023-02-28T07:06:00;94559.59;;;5.33
62930;BMP280;49036;42.782;23.108;2023-02-28T07:08:27;94556.59;;;5.44
62930;BMP280;49036;42.782;23.108;2023-02-28T07:10:54;94552.13;;;5.62
62930;BMP280;49036;42.782;23.108;2023-02-28T07:13:20;94554.00;;;5.67
62930;BMP280;49036;42.782;23.108;2023-02-28T07:15:56;94558.75;;;5.59
62930;BMP280;49036;42.782;23.108;2023-02-28T07:18:22;94554.44;;;5.50
62930;BMP280;49036;42.782;23.108;2023-02-28T07:20:48;94557.72;;;5.49
62930;BMP280;49036;42.782;23.108;2023-02-28T07:23:13;94553.22;;;5.59
62930;BMP280;49036;42.782;23.108;2023-02-28T07:25:39;94562.34;;;5.54
62930;BMP280;49036;42.782;23.108;2023-02-28T07:28:04;94561.88;;;5.63
62930;BMP280;49036;42.782;23.108;2023-02-28T07:30:30;94555.00;;;5.77
62930;BMP280;49036;42.782;23.108;2023-02-28T07:32:55;94545.25;;;5.97
62930;BMP280;49036;42.782;23.108;2023-02-28T07:35:22;94543.69;;;6.17
62930;BMP280;49036;42.782;23.108;2023-02-28T07:37:47;94547.00;;;6.23
62930;BMP280;49036;42.782;23.108;2023-02-28T07:40:13;94543.72;;;6.25
62930;BMP280;49036;42.782;23.108;2023-02-28T07:42:40;94542.16;;;6.45
62930;BMP280;49036;42.782;23.108;2023-02-28T07:45:07;94550.06;;;6.48
62930;BMP280;49036;42.782;23.108;2023-02-28T07:47:33;94543.88;;;6.63
62930;BMP280;49036;42.782;23.108;2023-02-28T07:49:59;94548.38;;;6.37
62930;BMP280;49036;42.782;23.108;2023-02-28T07:52:25;94536.00;;;6.67
62930;BMP280;49036;42.782;23.108;2023-02-28T07:54:51;94545.03;;;6.75
62930;BMP280;49036;42.782;23.108;2023-02-28T07:57:17;94548.19;;;6.87
62930;BMP280;49036;42.782;23.108;2023-02-28T07:59:43;94545.34;;;6.64
62930;BMP280;49036;42.782;23.108;2023-02-28T08:02:13;94544.47;;;6.69
62930;BMP280;49036;42.782;23.108;2023-02-28T08:04:39;94557.47;;;6.61
62930;BMP280;49036;42.782;23.108;2023-02-28T08:07:04;94544.81;;;6.65
62930;BMP280;49036;42.782;23.108;2023-02-28T08:09:30;94550.94;;;6.79
62930;BMP280;49036;42.782;23.108;2023-02-28T08:11:55;94551.13;;;7.04
62930;BMP280;49036;42.782;23.108;2023-02-28T08:14:21;94553.94;;;7.12
62930;BMP280;49036;42.782;23.108;2023-02-28T08:16:46;94565.72;;;7.20
62930;BMP280;49036;42.782;23.108;2023-02-28T08:19:12;94563.34;;;7.24
62930;BMP280;49036;42.782;23.108;2023-02-28T08:21:37;94568.66;;;7.14
62930;BMP280;49036;42.782;23.108;2023-02-28T08:24:03;94570.91;;;7.54
62930;BMP280;49036;42.782;23.108;2023-02-28T08:26:29;94561.34;;;7.63
62930;BMP280;49036;42.782;23.108;2023-02-28T08:28:54;94555.44;;;7.74
62930;BMP280;49036;42.782;23.108;2023-02-28T08:31:20;94567.94;;;7.82
62930;BMP280;49036;42.782;23.108;2023-02-28T08:33:46;94569.63;;;7.70
62930;BMP280;49036;42.782;23.108;2023-02-28T08:36:13;94568.47;;;7.81
62930;BMP280;49036;42.782;23.108;2023-02-28T08:38:40;94564.84;;;7.63
62930;BMP280;49036;42.782;23.108;2023-02-28T08:41:08;94566.28;;;7.56
62930;BMP280;49036;42.782;23.108;2023-02-28T08:43:35;94565.53;;;7.86
62930;BMP280;49036;42.782;23.108;2023-02-28T08:46:01;94552.25;;;8.08
62930;BMP280;49036;42.782;23.108;2023-02-28T08:48:28;94558.03;;;8.35
62930;BMP280;49036;42.782;23.108;2023-02-28T08:51:08;94569.41;;;8.54
62930;BMP280;49036;42.782;23.108;2023-02-28T08:53:35;94571.44;;;7.68
62930;BMP280;49036;42.782;23.108;2023-02-28T08:56:12;94562.44;;;7.44
62930;BMP280;49036;42.782;23.108;2023-02-28T08:58:39;94567.56;;;7.25
62930;BMP280;49036;42.782;23.108;2023-02-28T09:01:13;94560.75;;;7.11
62930;BMP280;49036;42.782;23.108;2023-02-28T09:03:39;94559.25;;;7.10
62930;BMP280;49036;42.782;23.108;2023-02-28T09:06:07;94562.16;;;6.96
62930;BMP280;49036;42.782;23.108;2023-02-28T09:08:33;94551.13;;;7.04
62930;BMP280;49036;42.782;23.108;2023-02-28T09:10:58;94555.75;;;7.09
62930;BMP280;49036;42.782;23.108;2023-02-28T09:13:27;94559.63;;;7.14
62930;BMP280;49036;42.782;23.108;2023-02-28T09:15:53;94552.81;;;7.15
62930;BMP280;49036;42.782;23.108;2023-02-28T09:18:20;94548.59;;;7.21
62930;BMP280;49036;42.782;23.108;2023-02-28T09:20:46;94551.94;;;7.43
62930;BMP280;49036;42.782;23.108;2023-02-28T09:23:12;94558.16;;;7.36
62930;BMP280;49036;42.782;23.108;2023-02-28T09:25:48;94553.75;;;7.55
62930;BMP280;49036;42.782;23.108;2023-02-28T09:28:14;94555.41;;;7.89
62930;BMP280;49036;42.782;23.108;2023-02-28T09:30:48;94556.41;;;8.24
62930;BMP280;49036;42.782;23.108;2023-02-28T09:33:14;94557.28;;;8.42
62930;BMP280;49036;42.782;23.108;2023-02-28T09:35:40;94555.78;;;8.48
62930;BMP280;49036;42.782;23.108;2023-02-28T09:38:06;94550.03;;;8.54
62930;BMP280;49036;42.782;23.108;2023-02-28T09:40:36;94543.47;;;9.07
62930;BMP280;49036;42.782;23.108;2023-02-28T09:43:02;94535.56;;;9.53
62930;BMP280;49036;42.782;23.108;2023-02-28T09:45:39;94530.78;;;9.88
62930;BMP280;49036;42.782;23.108;2023-02-28T09:48:26;94535.97;;;10.19
62930;BMP280;49036;42.782;23.108;2023-02-28T09:51:00;94535.59;;;10.39
62930;BMP280;49036;42.782;23.108;2023-02-28T09:53:29;94536.69;;;10.54
62930;BMP280;49036;42.782;23.108;2023-02-28T09:56:04;94531.00;;;10.52
62930;BMP280;49036;42.782;23.108;2023-02-28T10:01:35;94539.03;;;10.57
62930;BMP280;49036;42.782;23.108;2023-02-28T10:04:18;94538.22;;;10.64
62930;BMP280;49036;42.782;23.108;2023-02-28T10:06:51;94524.66;;;10.68
62930;BMP280;49036;42.782;23.108;2023-02-28T10:09:21;94527.69;;;10.90
62930;BMP280;49036;42.782;23.108;2023-02-28T10:11:51;94523.44;;;10.89
62930;BMP280;49036;42.782;23.108;2023-02-28T10:14:18;94525.06;;;10.92
62930;BMP280;49036;42.782;23.108;2023-02-28T10:17:05;94520.72;;;10.98
62930;BMP280;49036;42.782;23.108;2023-02-28T10:19:46;94515.56;;;11.31
62930;BMP280;49036;42.782;23.108;2023-02-28T10:22:40;94521.22;;;11.14
62930;BMP280;49036;42.782;23.108;2023-02-28T10:25:22;94516.63;;;11.36
62930;BMP280;49036;42.782;23.108;2023-02-28T10:27:49;94508.13;;;11.44
62930;BMP280;49036;42.782;23.108;2023-02-28T10:30:15;94508.59;;;11.50
62930;BMP280;49036;42.782;23.108;2023-02-28T10:32:42;94508.88;;;11.54
62930;BMP280;49036;42.782;23.108;2023-02-28T10:35:23;94503.47;;;11.56
62930;BMP280;49036;42.782;23.108;2023-02-28T10:37:58;94501.16;;;11.81
62930;BMP280;49036;42.782;23.108;2023-02-28T10:40:25;94496.91;;;11.80
62930;BMP280;49036;42.782;23.108;2023-02-28T10:45:35;94499.53;;;12.26
62930;BMP280;49036;42.782;23.108;2023-02-28T10:48:30;94492.63;;;12.37
62930;BMP280;49036;42.782;23.108;2023-02-28T10:50:57;94484.84;;;12.36
62930;BMP280;49036;42.782;23.108;2023-02-28T11:03:58;94461.50;;;12.91
62930;BMP280;49036;42.782;23.108;2023-02-28T11:06:28;94458.38;;;13.27
62930;BMP280;49036;42.782;23.108;2023-02-28T11:08:56;94458.09;;;13.45
62930;BMP280;49036;42.782;23.108;2023-02-28T11:11:24;94455.47;;;13.47
62930;BMP280;49036;42.782;23.108;2023-02-28T11:13:53;94459.69;;;13.26
62930;BMP280;49036;42.782;23.108;2023-02-28T11:16:20;94452.53;;;13.02
62930;BMP280;49036;42.782;23.108;2023-02-28T11:18:52;94460.72;;;12.69
62930;BMP280;49036;42.782;23.108;2023-02-28T11:21:31;94453.09;;;12.70
62930;BMP280;49036;42.782;23.108;2023-02-28T11:26:52;94442.19;;;12.52
62930;BMP280;49036;42.782;23.108;2023-02-28T11:32:01;94448.63;;;12.55
62930;BMP280;49036;42.782;23.108;2023-02-28T11:34:27;94444.84;;;12.41
62930;BMP280;49036;42.782;23.108;2023-02-28T11:36:54;94438.75;;;12.23
62930;BMP280;49036;42.782;23.108;2023-02-28T11:39:20;94432.97;;;11.71
62930;BMP280;49036;42.782;23.108;2023-02-28T11:44:54;94437.00;;;11.31
62930;BMP280;49036;42.782;23.108;2023-02-28T11:47:32;94433.03;;;11.15
62930;BMP280;49036;42.782;23.108;2023-02-28T11:52:59;94422.06;;;11.07
62930;BMP280;49036;42.782;23.108;2023-02-28T11:55:27;94427.88;;;11.01
62930;BMP280;49036;42.782;23.108;2023-02-28T12:06:22;94417.38;;;11.10
62930;BMP280;49036;42.782;23.108;2023-02-28T12:09:11;94423.19;;;10.94
62930;BMP280;49036;42.782;23.108;2023-02-28T12:11:50;94424.38;;;10.91
62930;BMP280;49036;42.782;23.108;2023-02-28T12:17:21;94414.56;;;10.90
62930;BMP280;49036;42.782;23.108;2023-02-28T12:20:12;94411.38;;;11.03
62930;BMP280;49036;42.782;23.108;2023-02-28T12:22:52;94413.88;;;11.09
62930;BMP280;49036;42.782;23.108;2023-02-28T12:25:54;94406.31;;;11.29
62930;BMP280;49036;42.782;23.108;2023-02-28T12:28:25;94406.63;;;11.43
62930;BMP280;49036;42.782;23.108;2023-02-28T12:33:23;94412.31;;;11.74
62930;BMP280;49036;42.782;23.108;2023-02-28T12:35:53;94408.50;;;11.88
62930;BMP280;49036;42.782;23.108;2023-02-28T12:38:39;94410.81;;;11.92
62930;BMP280;49036;42.782;23.108;2023-02-28T12:41:29;94406.31;;;11.68
62930;BMP280;49036;42.782;23.108;2023-02-28T12:44:30;94398.28;;;11.62
62930;BMP280;49036;42.782;23.108;2023-02-28T12:46:59;94399.13;;;11.45
62930;BMP280;49036;42.782;23.108;2023-02-28T12:49:31;94404.00;;;11.35
62930;BMP280;49036;42.782;23.108;2023-02-28T12:52:00;94387.59;;;11.29
62930;BMP280;49036;42.782;23.108;2023-02-28T12:54:37;94402.19;;;11.11
62930;BMP280;49036;42.782;23.108;2023-02-28T12:57:21;94401.38;;;10.72
62930;BMP280;49036;42.782;23.108;2023-02-28T12:59:54;94401.44;;;10.64
62930;BMP280;49036;42.782;23.108;2023-02-28T13:02:42;94387.94;;;10.87
62930;BMP280;49036;42.782;23.108;2023-02-28T13:05:28;94381.84;;;10.98
62930;BMP280;49036;42.782;23.108;2023-02-28T13:10:53;94382.94;;;11.42
62930;BMP280;49036;42.782;23.108;2023-02-28T13:13:26;94376.59;;;11.51
62930;BMP280;49036;42.782;23.108;2023-02-28T13:16:09;94384.97;;;11.70
62930;BMP280;49036;42.782;23.108;2023-02-28T13:18:38;94373.94;;;11.72
62930;BMP280;49036;42.782;23.108;2023-02-28T13:21:08;94376.59;;;11.80
62930;BMP280;49036;42.782;23.108;2023-02-28T13:23:59;94377.22;;;11.69
62930;BMP280;49036;42.782;23.108;2023-02-28T13:34:34;94372.53;;;11.42
62930;BMP280;49036;42.782;23.108;2023-02-28T13:39:54;94359.50;;;11.16
62930;BMP280;49036;42.782;23.108;2023-02-28T13:42:36;94361.69;;;11.17
62930;BMP280;49036;42.782;23.108;2023-02-28T13:47:43;94369.13;;;10.86
62930;BMP280;49036;42.782;23.108;2023-02-28T14:01:21;94356.56;;;11.33
62930;BMP280;49036;42.782;23.108;2023-02-28T14:03:57;94361.84;;;11.39
62930;BMP280;49036;42.782;23.108;2023-02-28T14:06:31;94358.75;;;11.44
62930;BMP280;49036;42.782;23.108;2023-02-28T14:09:23;94360.38;;;11.38
62930;BMP280;49036;42.782;23.108;2023-02-28T14:11:49;94357.94;;;11.22
62930;BMP280;49036;42.782;23.108;2023-02-28T14:17:02;94357.44;;;10.97
62930;BMP280;49036;42.782;23.108;2023-02-28T14:19:30;94350.94;;;10.75
62930;BMP280;49036;42.782;23.108;2023-02-28T14:22:18;94357.50;;;10.70
62930;BMP280;49036;42.782;23.108;2023-02-28T14:27:53;94365.16;;;10.43
62930;BMP280;49036;42.782;23.108;2023-02-28T14:30:51;94364.53;;;10.34
62930;BMP280;49036;42.782;23.108;2023-02-28T14:33:41;94363.00;;;10.14
62930;BMP280;49036;42.782;23.108;2023-02-28T14:36:30;94367.00;;;9.94
62930;BMP280;49036;42.782;23.108;2023-02-28T14:39:05;94369.53;;;9.82
62930;BMP280;49036;42.782;23.108;2023-02-28T14:41:37;94366.19;;;9.66
62930;BMP280;49036;42.782;23.108;2023-02-28T14:44:23;94363.69;;;9.61
62930;BMP280;49036;42.782;23.108;2023-02-28T14:46:55;94362.63;;;9.56
62930;BMP280;49036;42.782;23.108;2023-02-28T14:49:27;94364.44;;;9.44
62930;BMP280;49036;42.782;23.108;2023-02-28T14:52:16;94359.13;;;9.38
62930;BMP280;49036;42.782;23.108;2023-02-28T14:54:43;94355.13;;;9.32
62930;BMP280;49036;42.782;23.108;2023-02-28T14:57:29;94360.28;;;9.18
62930;BMP280;49036;42.782;23.108;2023-02-28T15:02:30;94364.97;;;8.91
62930;BMP280;49036;42.782;23.108;2023-02-28T15:05:02;94364.84;;;8.81
62930;BMP280;49036;42.782;23.108;2023-02-28T15:07:36;94365.25;;;8.77
62930;BMP280;49036;42.782;23.108;2023-02-28T15:10:20;94360.75;;;8.65
62930;BMP280;49036;42.782;23.108;2023-02-28T15:12:58;94363.25;;;8.53
62930;BMP280;49036;42.782;23.108;2023-02-28T15:18:26;94374.28;;;8.28
62930;BMP280;49036;42.782;23.108;2023-02-28T15:20:55;94369.00;;;8.23
62930;BMP280;49036;42.782;23.108;2023-02-28T15:23:22;94381.03;;;8.10
62930;BMP280;49036;42.782;23.108;2023-02-28T15:25:49;94375.00;;;7.96
62930;BMP280;49036;42.782;23.108;2023-02-28T15:28:20;94385.38;;;7.88
62930;BMP280;49036;42.782;23.108;2023-02-28T15:30:52;94385.03;;;7.84
62930;BMP280;49036;42.782;23.108;2023-02-28T15:33:21;94388.03;;;7.71
62930;BMP280;49036;42.782;23.108;2023-02-28T15:35:47;94390.09;;;7.63
62930;BMP280;49036;42.782;23.108;2023-02-28T15:38:24;94386.59;;;7.54
62930;BMP280;49036;42.782;23.108;2023-02-28T15:40:56;94391.38;;;7.46
62930;BMP280;49036;42.782;23.108;2023-02-28T15:43:33;94391.97;;;7.37
62930;BMP280;49036;42.782;23.108;2023-02-28T15:46:09;94394.94;;;7.32
62930;BMP280;49036;42.782;23.108;2023-02-28T15:48:56;94394.94;;;7.24
62930;BMP280;49036;42.782;23.108;2023-02-28T15:51:32;94405.06;;;7.14
62930;BMP280;49036;42.782;23.108;2023-02-28T15:54:07;94407.28;;;7.08
62930;BMP280;49036;42.782;23.108;2023-02-28T15:56:36;94416.47;;;7.02
62930;BMP280;49036;42.782;23.108;2023-02-28T15:59:07;94415.19;;;6.96
62930;BMP280;49036;42.782;23.108;2023-02-28T16:01:38;94419.59;;;6.84
62930;BMP280;49036;42.782;23.108;2023-02-28T16:04:06;94413.16;;;6.81
62930;BMP280;49036;42.782;23.108;2023-02-28T16:06:41;94415.19;;;6.81
62930;BMP280;49036;42.782;23.108;2023-02-28T16:09:13;94415.94;;;6.74
62930;BMP280;49036;42.782;23.108;2023-02-28T16:11:48;94422.38;;;6.68
62930;BMP280;49036;42.782;23.108;2023-02-28T16:14:25;94425.88;;;6.69
62930;BMP280;49036;42.782;23.108;2023-02-28T16:16:55;94427.50;;;6.64
62930;BMP280;49036;42.782;23.108;2023-02-28T16:19:22;94430.06;;;6.62